Silverthorne, Colorado
Current Conditions -  °F | °C
As of 10:35 PM on Saturday 20 Dec 2014 (Local Time) from KCCU Reporting Station
Haze Haze  
Wind Chill:   Ceiling: 200
Heat Index: 19°   Visibility: 0.75mi
Dew Point: 14°   Wind: 31mph
Humidity: 80%   Direction: 280°W
Pressure: 29.99"   Gusts: 39mph
Location:  39.65°N, 106.08°W
Report Text: KCCU 210535Z AUTO 28027G34KT 3/4SM HZ OVC002 M07/M10 A2999 RMK AO2
Loading
Personal Weather Stations






























Interactive Weather Map New forecast layout! Learn more

10-Day Weather Forecast

Advertisements
Track Severe Weather on mobile